createdAt,value
2019-04-22T00:00:00.528Z,50.39
2019-04-22T00:02:13.837Z,51.16
2019-04-22T00:04:40.242Z,50.80
2019-04-22T00:07:03.211Z,50.28
2019-04-22T00:09:17.722Z,50.79
2019-04-22T00:11:38.472Z,50.48
2019-04-22T00:13:45.811Z,49.74
2019-04-22T00:15:47.800Z,48.55
2019-04-22T00:18:16.230Z,48.08
2019-04-22T00:20:22.655Z,48.75
2019-04-22T00:22:32.124Z,49.41
2019-04-22T00:24:46.349Z,49.78
2019-04-22T00:27:09.929Z,50.70
2019-04-22T00:29:37.069Z,51.09
2019-04-22T00:31:28.658Z,51.14
2019-04-22T00:33:41.905Z,51.42
2019-04-22T00:35:56.771Z,51.12
2019-04-22T00:38:11.505Z,50.70
2019-04-22T00:40:21.022Z,51.02
2019-04-22T00:42:37.509Z,51.86
2019-04-22T00:44:47.052Z,51.67
2019-04-22T00:47:00.609Z,51.54
2019-04-22T00:49:52.436Z,51.15
2019-04-22T00:51:28.134Z,50.89
2019-04-22T00:53:34.239Z,50.88
2019-04-22T00:58:24.382Z,50.85
2019-04-22T01:00:37.864Z,50.56
2019-04-22T01:05:00.772Z,50.10
2019-04-22T01:09:30.308Z,49.23
2019-04-22T01:11:59.132Z,49.00
2019-04-22T01:13:55.252Z,49.55
2019-04-22T01:16:11.247Z,48.96
2019-04-22T01:18:21.006Z,49.32
2019-04-22T01:22:50.494Z,49.29
2019-04-22T01:24:56.441Z,48.92
2019-04-22T01:27:09.355Z,49.65
2019-04-22T01:29:17.591Z,49.01
2019-04-22T01:31:22.036Z,49.76
2019-04-22T01:33:37.418Z,49.57
2019-04-22T01:36:06.816Z,49.58
2019-04-22T01:38:17.694Z,50.16
2019-04-22T01:40:38.898Z,50.14
2019-04-22T01:42:48.602Z,50.30
2019-04-22T01:44:57.065Z,50.47
2019-04-22T01:47:13.500Z,50.30
2019-04-22T01:49:27.274Z,50.29
2019-04-22T01:51:54.683Z,50.10
2019-04-22T01:53:58.050Z,50.15
2019-04-22T01:56:07.638Z,50.03
2019-04-22T01:58:10.967Z,49.48
2019-04-22T02:00:35.702Z,49.65
2019-04-22T02:02:41.727Z,49.85
2019-04-22T02:05:01.225Z,51.33
2019-04-22T02:07:10.695Z,51.65
2019-04-22T02:11:39.114Z,53.24
2019-04-22T02:13:54.352Z,53.28
2019-04-22T02:16:21.192Z,53.43
2019-04-22T02:18:18.032Z,52.71
2019-04-22T02:20:29.731Z,52.52
2019-04-22T02:23:40.790Z,52.18
2019-04-22T02:25:38.442Z,53.16
2019-04-22T02:27:52.428Z,53.66
2019-04-22T02:29:51.962Z,54.86
2019-04-22T02:36:35.944Z,55.58
2019-04-22T02:43:34.175Z,56.43
2019-04-22T02:45:41.820Z,56.72
2019-04-22T02:47:42.330Z,56.90
2019-04-22T02:50:02.424Z,56.94
2019-04-22T02:56:39.596Z,58.32
2019-04-22T02:59:07.958Z,58.13
2019-04-22T03:01:05.406Z,58.13
2019-04-22T03:03:31.094Z,57.95
2019-04-22T03:05:40.902Z,58.14
2019-04-22T03:07:48.527Z,57.93
2019-04-22T03:09:52.770Z,58.31
2019-04-22T03:14:22.711Z,58.84
2019-04-22T03:16:41.110Z,58.08
2019-04-22T03:19:02.460Z,58.16
2019-04-22T03:21:05.347Z,58.44
2019-04-22T03:27:34.966Z,58.07
2019-04-22T03:30:33.710Z,58.58
2019-04-22T03:32:40.350Z,58.58
2019-04-22T03:41:13.372Z,59.30
2019-04-22T03:43:23.977Z,57.60
2019-04-22T03:48:04.666Z,57.69
2019-04-22T03:59:05.196Z,54.55
2019-04-22T04:01:13.817Z,54.88
2019-04-22T04:03:22.773Z,54.36
2019-04-22T04:07:55.235Z,54.12
2019-04-22T04:10:10.452Z,53.48
2019-04-22T04:14:26.233Z,55.06
2019-04-22T04:16:45.980Z,54.10
2019-04-22T04:21:12.571Z,54.25
2019-04-22T04:23:38.009Z,54.34
2019-04-22T04:30:06.251Z,54.30
2019-04-22T04:34:43.176Z,55.22
2019-04-22T04:36:34.742Z,55.54
2019-04-22T04:39:00.656Z,55.33
2019-04-22T04:41:00.386Z,55.14
2019-04-22T04:43:18.381Z,56.70
2019-04-22T04:52:14.530Z,54.93
2019-04-22T04:54:30.556Z,55.01
2019-04-22T04:56:46.936Z,54.23
2019-04-22T04:59:05.570Z,53.14
2019-04-22T05:01:03.828Z,53.15
2019-04-22T05:03:23.435Z,54.33
2019-04-22T05:05:29.295Z,53.43
2019-04-22T05:07:44.286Z,53.46
2019-04-22T05:10:02.192Z,53.28
2019-04-22T05:12:22.179Z,52.72
2019-04-22T05:16:34.589Z,51.38
2019-04-22T05:18:49.139Z,50.39
2019-04-22T05:23:05.784Z,49.86
2019-04-22T05:25:17.878Z,49.42
2019-04-22T05:27:36.277Z,48.99
2019-04-22T05:30:00.887Z,48.07
2019-04-22T05:31:57.254Z,47.21
2019-04-22T05:34:08.421Z,46.07
2019-04-22T05:36:20.394Z,45.49
2019-04-22T05:38:42.829Z,44.73
2019-04-22T05:40:40.831Z,44.31
2019-04-22T05:43:00.174Z,43.98
2019-04-22T05:45:17.887Z,43.50
2019-04-22T05:47:28.832Z,43.40
2019-04-22T05:49:36.978Z,42.88
2019-04-22T05:51:48.044Z,40.84
2019-04-22T05:54:07.960Z,39.58
2019-04-22T05:56:28.435Z,38.66
2019-04-22T05:58:38.113Z,37.46
2019-04-22T06:01:12.528Z,37.20
2019-04-22T06:05:31.941Z,35.52
2019-04-22T06:07:26.757Z,35.53
2019-04-22T06:09:38.885Z,35.53
2019-04-22T06:11:46.193Z,32.52
2019-04-22T06:14:02.288Z,33.04
2019-04-22T06:16:20.581Z,33.14
2019-04-22T06:18:33.365Z,32.76
2019-04-22T06:20:56.960Z,32.44
2019-04-22T06:23:04.202Z,31.95
2019-04-22T06:25:23.068Z,32.02
2019-04-22T06:27:30.916Z,31.89
2019-04-22T06:29:36.529Z,31.28
2019-04-22T06:32:12.068Z,30.75
2019-04-22T06:34:13.417Z,30.68
2019-04-22T06:36:24.413Z,29.95
2019-04-22T06:38:37.628Z,29.64
2019-04-22T06:40:46.773Z,29.33
2019-04-22T06:43:06.026Z,28.29
2019-04-22T06:45:18.779Z,27.57
2019-04-22T06:47:40.091Z,27.73
2019-04-22T06:49:41.466Z,25.96
2019-04-22T06:51:55.269Z,25.61
2019-04-22T06:54:07.283Z,25.22
2019-04-22T06:56:17.282Z,25.97
2019-04-22T06:58:28.934Z,25.26
2019-04-22T07:03:23.369Z,26.87
2019-04-22T07:05:19.841Z,26.75
2019-04-22T07:07:26.759Z,26.86
2019-04-22T07:11:52.865Z,27.17
2019-04-22T07:14:04.173Z,27.41
2019-04-22T07:16:20.321Z,28.96
2019-04-22T07:20:44.221Z,28.59
2019-04-22T07:22:54.501Z,27.29
2019-04-22T07:25:06.685Z,28.19
2019-04-22T07:27:14.671Z,27.64
2019-04-22T07:29:32.647Z,29.03
2019-04-22T07:31:42.904Z,27.85
2019-04-22T07:34:03.820Z,27.43
2019-04-22T07:38:28.291Z,28.20
2019-04-22T07:40:40.574Z,27.10
2019-04-22T07:42:49.455Z,27.23
2019-04-22T07:45:05.023Z,26.92
2019-04-22T07:47:18.377Z,26.53
2019-04-22T07:49:33.871Z,27.15
2019-04-22T07:53:58.828Z,26.37
2019-04-22T07:56:05.144Z,25.32
2019-04-22T08:00:34.136Z,27.32
2019-04-22T08:02:51.691Z,26.52
2019-04-22T08:05:07.361Z,26.78
2019-04-22T08:07:17.466Z,28.85
2019-04-22T08:09:35.641Z,25.29
2019-04-22T08:13:51.276Z,24.27
2019-04-22T08:16:10.035Z,24.85
2019-04-22T08:18:22.060Z,24.05
2019-04-22T08:20:33.822Z,23.91
2019-04-22T08:22:56.055Z,25.33
2019-04-22T08:25:01.870Z,24.61
2019-04-22T08:27:11.345Z,24.98
2019-04-22T08:31:40.029Z,24.68
2019-04-22T08:33:59.864Z,23.99
2019-04-22T08:36:15.152Z,24.74
2019-04-22T08:38:19.319Z,25.21
2019-04-22T08:40:38.414Z,25.81
2019-04-22T08:42:58.643Z,24.02
2019-04-22T08:47:19.411Z,23.86
2019-04-22T08:49:30.705Z,24.59
2019-04-22T08:51:35.650Z,25.62
2019-04-22T08:56:21.989Z,23.59
2019-04-22T08:58:35.884Z,24.28
2019-04-22T09:00:37.502Z,24.52
2019-04-22T09:02:51.858Z,24.62
2019-04-22T09:04:53.348Z,25.37
2019-04-22T09:07:28.829Z,24.25
2019-04-22T09:09:27.002Z,23.77
2019-04-22T09:11:44.906Z,24.15
2019-04-22T09:13:58.678Z,24.42
2019-04-22T09:16:08.747Z,23.07
2019-04-22T09:18:16.074Z,23.54
2019-04-22T09:20:32.587Z,25.52
2019-04-22T09:22:40.799Z,24.18
2019-04-22T09:24:55.207Z,22.97
2019-04-22T09:27:11.471Z,23.41
2019-04-22T09:29:29.401Z,22.46
2019-04-22T09:31:35.967Z,23.58
2019-04-22T09:33:43.205Z,23.63
2019-04-22T09:36:09.129Z,24.22
2019-04-22T09:38:25.724Z,24.40
2019-04-22T09:40:22.325Z,22.98
2019-04-22T09:42:39.149Z,23.39
2019-04-22T09:45:05.767Z,23.03
2019-04-22T09:47:06.215Z,22.76
2019-04-22T09:49:19.306Z,22.96
2019-04-22T09:51:32.568Z,22.24
2019-04-22T09:53:47.244Z,22.53
2019-04-22T09:55:58.396Z,22.96
2019-04-22T09:58:09.420Z,22.89
2019-04-22T10:00:25.495Z,23.17
2019-04-22T10:04:46.581Z,22.61
2019-04-22T10:06:54.689Z,22.64
2019-04-22T10:09:46.971Z,22.71
2019-04-22T10:13:45.524Z,22.91
2019-04-22T10:15:59.048Z,22.32
2019-04-22T10:18:04.609Z,22.13
2019-04-22T10:20:20.593Z,22.38
2019-04-22T10:22:32.307Z,22.70
2019-04-22T10:24:39.219Z,21.63
2019-04-22T10:26:50.564Z,21.82
2019-04-22T10:29:10.805Z,22.06
2019-04-22T10:31:23.960Z,22.25
2019-04-22T10:33:26.857Z,24.19
2019-04-22T10:35:24.655Z,23.30
2019-04-22T10:37:34.258Z,22.64
2019-04-22T10:39:54.100Z,22.23
2019-04-22T10:41:59.348Z,24.55
2019-04-22T10:44:11.008Z,22.43
2019-04-22T10:46:22.165Z,22.76
2019-04-22T10:48:34.497Z,23.29
2019-04-22T10:50:46.775Z,22.50
2019-04-22T10:52:57.804Z,24.25
2019-04-22T10:55:09.744Z,24.20
2019-04-22T10:57:22.036Z,22.68
2019-04-22T10:59:34.358Z,23.82
2019-04-22T11:01:46.521Z,21.58
2019-04-22T11:03:57.527Z,21.88
2019-04-22T11:06:09.669Z,21.27
2019-04-22T11:08:31.621Z,21.58
2019-04-22T11:10:48.721Z,21.11
2019-04-22T11:12:47.163Z,21.67
2019-04-22T11:14:58.249Z,21.47
2019-04-22T11:17:11.513Z,23.09
2019-04-22T11:19:23.627Z,21.30
2019-04-22T11:21:35.814Z,21.69
2019-04-22T11:23:47.083Z,21.64
2019-04-22T11:25:58.002Z,22.22
2019-04-22T11:28:09.744Z,22.17
2019-04-22T11:30:24.319Z,21.28
2019-04-22T11:32:33.974Z,22.11
2019-04-22T11:34:45.007Z,22.98
2019-04-22T11:36:56.838Z,23.12
2019-04-22T11:39:11.130Z,20.62
2019-04-22T11:41:21.562Z,21.58
2019-04-22T11:43:32.721Z,21.51
2019-04-22T11:45:44.959Z,22.12
2019-04-22T11:47:57.258Z,21.91
2019-04-22T11:50:10.100Z,22.28
2019-04-22T11:52:24.663Z,21.07
2019-04-22T11:54:36.965Z,21.87
2019-04-22T11:56:49.309Z,22.70
2019-04-22T11:59:00.800Z,21.83
2019-04-22T12:01:12.783Z,21.14
2019-04-22T12:03:25.298Z,21.37
2019-04-22T12:05:37.584Z,21.12
2019-04-22T12:07:49.116Z,21.23
2019-04-22T12:10:16.435Z,22.01
2019-04-22T12:12:15.965Z,21.75
2019-04-22T12:14:27.780Z,23.08
2019-04-22T12:16:39.344Z,22.49
2019-04-22T12:18:51.210Z,21.05
2019-04-22T12:21:03.607Z,21.15
2019-04-22T12:23:14.897Z,20.97
2019-04-22T12:25:34.691Z,21.95
2019-04-22T12:27:41.227Z,21.65
2019-04-22T12:29:53.170Z,21.31
2019-04-22T12:32:05.336Z,22.50
2019-04-22T12:34:17.300Z,20.78
2019-04-22T12:36:28.768Z,20.37
2019-04-22T12:38:39.968Z,21.80
2019-04-22T12:40:56.564Z,20.47
2019-04-22T12:43:04.717Z,20.26
2019-04-22T12:45:18.380Z,20.52
2019-04-22T12:47:30.557Z,20.08
2019-04-22T12:49:42.484Z,19.97
2019-04-22T12:51:54.812Z,19.88
2019-04-22T12:54:06.855Z,20.79
2019-04-22T12:56:19.374Z,20.48
2019-04-22T12:58:31.713Z,20.31
2019-04-22T13:00:42.897Z,20.94
2019-04-22T13:02:54.769Z,20.67
2019-04-22T13:05:06.309Z,20.94
2019-04-22T13:07:17.676Z,20.71
2019-04-22T13:09:29.413Z,19.54
2019-04-22T13:11:42.235Z,19.74
2019-04-22T13:13:54.668Z,20.06
2019-04-22T13:16:06.960Z,20.30
2019-04-22T13:18:28.756Z,20.05
2019-04-22T13:20:32.377Z,20.84
2019-04-22T13:22:43.371Z,20.79
2019-04-22T13:24:54.229Z,21.23
2019-04-22T13:27:06.704Z,21.73
2019-04-22T13:29:19.274Z,20.93
2019-04-22T13:31:30.944Z,21.01
2019-04-22T13:33:43.031Z,21.63
2019-04-22T13:35:54.406Z,22.63
2019-04-22T13:38:06.900Z,21.26
2019-04-22T13:40:19.216Z,21.26
2019-04-22T13:42:31.523Z,21.24
2019-04-22T13:44:44.167Z,21.35
2019-04-22T13:47:08.588Z,22.06
2019-04-22T13:49:40.252Z,21.37
2019-04-22T13:54:42.390Z,21.94
2019-04-22T13:56:10.583Z,21.87
2019-04-22T13:58:14.096Z,21.24
2019-04-22T14:00:18.294Z,22.01
2019-04-22T14:02:32.642Z,22.30
2019-04-22T14:04:46.418Z,22.25
2019-04-22T14:06:58.660Z,22.26
2019-04-22T14:09:09.689Z,21.69
2019-04-22T14:11:27.726Z,21.50
2019-04-22T14:13:34.239Z,21.55
2019-04-22T14:15:46.596Z,21.42
2019-04-22T14:17:58.847Z,21.71
2019-04-22T14:20:10.910Z,21.21
2019-04-22T14:22:22.076Z,21.61
2019-04-22T14:24:34.318Z,21.43
2019-04-22T14:27:01.316Z,20.59
2019-04-22T14:28:59.834Z,20.81
2019-04-22T14:31:11.051Z,20.66
2019-04-22T14:33:22.407Z,20.90
2019-04-22T14:35:33.707Z,20.07
2019-04-22T14:37:46.156Z,19.93
2019-04-22T14:39:57.818Z,20.54
2019-04-22T14:42:28.505Z,20.21
2019-04-22T14:47:05.661Z,20.57
2019-04-22T14:49:10.635Z,20.58
2019-04-22T14:51:16.068Z,20.35
2019-04-22T14:53:30.838Z,20.39
2019-04-22T14:55:30.758Z,20.17
2019-04-22T14:57:40.344Z,20.55
2019-04-22T14:59:53.609Z,20.58
2019-04-22T15:02:05.652Z,20.37
2019-04-22T15:04:17.223Z,20.16
2019-04-22T15:06:28.554Z,20.37
2019-04-22T15:08:39.514Z,19.89
2019-04-22T15:10:54.060Z,19.90
2019-04-22T15:13:05.524Z,20.38
2019-04-22T15:15:31.297Z,20.28
2019-04-22T15:18:00.999Z,20.01
2019-04-22T15:20:29.927Z,20.07
2019-04-22T15:22:41.066Z,19.86
2019-04-22T15:24:52.440Z,19.72
2019-04-22T15:27:04.720Z,19.41
2019-04-22T15:29:15.811Z,19.44
2019-04-22T15:31:27.189Z,19.24
2019-04-22T15:33:39.560Z,19.14
2019-04-22T15:35:51.550Z,19.32
2019-04-22T15:38:04.580Z,19.89
2019-04-22T15:40:16.570Z,19.61
2019-04-22T15:42:31.817Z,20.03
2019-04-22T15:44:42.068Z,20.13
2019-04-22T15:46:53.404Z,19.28
2019-04-22T15:49:04.557Z,19.35
2019-04-22T15:51:16.493Z,19.30
2019-04-22T15:53:27.736Z,18.55
2019-04-22T15:55:39.005Z,18.96
2019-04-22T15:57:49.962Z,18.77
2019-04-22T16:00:14.276Z,18.33
2019-04-22T16:02:14.002Z,18.39
2019-04-22T16:04:26.228Z,18.45
2019-04-22T16:06:38.834Z,18.40
2019-04-22T16:08:49.927Z,18.67
2019-04-22T16:11:02.056Z,19.17
2019-04-22T16:13:20.336Z,18.80
2019-04-22T16:15:26.571Z,18.41
2019-04-22T16:17:37.790Z,18.23
2019-04-22T16:19:49.026Z,18.60
2019-04-22T16:22:05.422Z,18.45
2019-04-22T16:24:22.328Z,18.63
2019-04-22T16:26:38.111Z,18.71
2019-04-22T16:28:49.644Z,18.91
2019-04-22T16:31:03.668Z,18.71
2019-04-22T16:33:15.244Z,18.86
2019-04-22T16:35:26.786Z,18.78
2019-04-22T16:37:38.937Z,18.64
2019-04-22T16:39:51.902Z,18.73
2019-04-22T16:42:02.765Z,18.81
2019-04-22T16:44:14.385Z,18.62
2019-04-22T16:46:25.649Z,19.01
2019-04-22T16:48:38.030Z,19.29
2019-04-22T16:50:52.302Z,19.11
2019-04-22T16:53:02.134Z,19.78
2019-04-22T16:55:14.710Z,20.00
2019-04-22T16:57:26.177Z,18.47
2019-04-22T16:59:37.159Z,19.04
2019-04-22T17:02:06.521Z,19.38
2019-04-22T17:04:22.921Z,18.62
2019-04-22T17:06:37.237Z,18.84
2019-04-22T17:08:48.734Z,19.11
2019-04-22T17:11:01.979Z,19.23
2019-04-22T17:13:19.212Z,19.00
2019-04-22T17:15:27.063Z,19.13
2019-04-22T17:17:39.169Z,19.25
2019-04-22T17:19:51.367Z,19.34
2019-04-22T17:22:03.700Z,19.56
2019-04-22T17:24:14.611Z,19.68
2019-04-22T17:26:26.445Z,20.17
2019-04-22T17:28:37.558Z,20.04
2019-04-22T17:30:49.776Z,19.80
2019-04-22T17:33:00.996Z,20.17
2019-04-22T17:35:12.552Z,20.46
2019-04-22T17:37:28.081Z,20.50
2019-04-22T17:39:47.743Z,20.79
2019-04-22T17:42:08.300Z,20.66
2019-04-22T17:44:32.272Z,20.92
2019-04-22T17:46:41.990Z,20.67
2019-04-22T17:49:12.140Z,21.00
2019-04-22T17:51:36.710Z,21.39
2019-04-22T17:53:40.466Z,20.92
2019-04-22T17:56:08.415Z,21.39
2019-04-22T17:57:59.542Z,21.20
2019-04-22T18:00:11.191Z,21.35
2019-04-22T18:02:25.207Z,21.69
2019-04-22T18:04:19.992Z,21.77
2019-04-22T18:06:54.850Z,22.25
2019-04-22T18:09:01.923Z,21.98
2019-04-22T18:11:24.519Z,21.79
2019-04-22T18:13:36.287Z,22.25
2019-04-22T18:15:45.057Z,22.15
2019-04-22T18:18:03.667Z,22.42
2019-04-22T18:20:04.660Z,22.48
2019-04-22T18:22:16.171Z,22.68
2019-04-22T18:24:25.892Z,22.69
2019-04-22T18:26:47.582Z,23.07
2019-04-22T18:29:00.908Z,23.18
2019-04-22T18:31:15.054Z,23.47
2019-04-22T18:33:23.945Z,23.28
2019-04-22T18:35:34.954Z,23.49
2019-04-22T18:37:53.680Z,23.44
2019-04-22T18:40:08.567Z,23.39
2019-04-22T18:42:17.864Z,23.54
2019-04-22T18:44:35.295Z,26.99
2019-04-22T18:46:42.688Z,28.93
2019-04-22T18:48:58.153Z,24.86
2019-04-22T18:51:20.350Z,24.03
2019-04-22T18:53:38.791Z,24.22
2019-04-22T18:55:37.716Z,24.34
2019-04-22T18:57:55.049Z,24.90
2019-04-22T18:59:58.114Z,25.85
2019-04-22T19:02:14.192Z,26.92
2019-04-22T19:04:27.244Z,28.31
2019-04-22T19:07:08.527Z,28.25
2019-04-22T19:09:10.623Z,28.50
2019-04-22T19:11:17.481Z,28.82
2019-04-22T19:15:54.100Z,30.05
2019-04-22T19:18:12.758Z,30.72
2019-04-22T19:20:18.448Z,31.90
2019-04-22T19:22:29.826Z,32.61
2019-04-22T19:24:34.147Z,32.30
2019-04-22T19:26:55.815Z,32.93
2019-04-22T19:29:00.373Z,33.39
2019-04-22T19:31:21.901Z,33.96
2019-04-22T19:33:31.597Z,33.70
2019-04-22T19:35:34.989Z,34.33
2019-04-22T19:37:50.797Z,35.16
2019-04-22T19:40:21.868Z,34.88
2019-04-22T19:42:30.546Z,34.25
2019-04-22T19:44:37.687Z,34.44
2019-04-22T19:47:06.520Z,35.81
2019-04-22T19:49:07.036Z,34.97
2019-04-22T19:51:15.688Z,35.15
2019-04-22T19:53:29.760Z,34.27
2019-04-22T19:55:45.025Z,34.28
2019-04-22T19:57:50.980Z,34.06
2019-04-22T20:00:05.452Z,33.98
2019-04-22T20:02:40.316Z,33.57
2019-04-22T20:04:52.701Z,34.01
2019-04-22T20:07:00.699Z,33.81
2019-04-22T20:09:25.013Z,33.96
2019-04-22T20:11:35.324Z,34.58
2019-04-22T20:13:47.986Z,34.47
2019-04-22T20:15:50.611Z,34.30
2019-04-22T20:18:29.148Z,34.74
2019-04-22T20:20:27.339Z,33.63
2019-04-22T20:22:41.673Z,33.75
2019-04-22T20:24:44.818Z,33.69
2019-04-22T20:27:02.970Z,33.34
2019-04-22T20:29:21.113Z,33.14
2019-04-22T20:31:30.059Z,33.36
2019-04-22T20:33:50.286Z,33.15
2019-04-22T20:36:02.273Z,32.94
2019-04-22T20:38:13.808Z,32.77
2019-04-22T20:40:31.660Z,33.02
2019-04-22T20:42:48.382Z,33.12
2019-04-22T20:44:56.724Z,32.60
2019-04-22T20:47:05.875Z,32.59
2019-04-22T20:49:20.579Z,32.70
2019-04-22T20:51:44.462Z,32.56
2019-04-22T20:53:54.594Z,32.45
2019-04-22T20:56:00.089Z,32.53
2019-04-22T20:58:13.366Z,32.51
2019-04-22T21:00:19.997Z,32.39
2019-04-22T21:02:32.653Z,32.66
2019-04-22T21:04:41.560Z,32.64
2019-04-22T21:07:01.919Z,32.50
2019-04-22T21:09:20.989Z,32.38
2019-04-22T21:11:29.557Z,32.42
2019-04-22T21:13:46.494Z,32.31
2019-04-22T21:15:57.562Z,32.60
2019-04-22T21:18:06.902Z,32.46
2019-04-22T21:20:29.855Z,32.43
2019-04-22T21:22:33.864Z,32.69
2019-04-22T21:24:43.730Z,32.72
2019-04-22T21:27:08.623Z,32.52
2019-04-22T21:29:09.988Z,32.57
2019-04-22T21:31:30.756Z,32.69
2019-04-22T21:33:40.788Z,32.65
2019-04-22T21:38:08.463Z,32.90
2019-04-22T21:40:20.213Z,33.03
2019-04-22T21:42:27.905Z,33.37
2019-04-22T21:44:38.370Z,33.19
2019-04-22T21:47:03.128Z,33.44
2019-04-22T21:49:16.105Z,33.34
2019-04-22T21:51:29.137Z,33.21
2019-04-22T21:53:43.381Z,33.26
2019-04-22T21:55:50.444Z,33.81
2019-04-22T21:58:07.015Z,33.42
2019-04-22T22:00:25.244Z,33.73
2019-04-22T22:02:35.782Z,33.68
2019-04-22T22:04:43.261Z,33.72
2019-04-22T22:06:48.035Z,33.72
2019-04-22T22:09:08.974Z,33.79
2019-04-22T22:11:18.550Z,33.76
2019-04-22T22:13:36.109Z,33.72
2019-04-22T22:15:47.918Z,33.85
2019-04-22T22:17:55.511Z,33.89
2019-04-22T22:20:13.339Z,33.91
2019-04-22T22:22:42.116Z,33.95
2019-04-22T22:25:00.062Z,34.51
2019-04-22T22:26:55.310Z,34.08
2019-04-22T22:29:08.846Z,34.24
2019-04-22T22:31:22.511Z,34.20
2019-04-22T22:33:35.206Z,34.10
2019-04-22T22:35:40.879Z,34.52
2019-04-22T22:37:56.217Z,34.33
2019-04-22T22:39:57.765Z,34.29
2019-04-22T22:42:01.892Z,34.48
2019-04-22T22:44:21.231Z,34.79
2019-04-22T22:46:36.785Z,34.62
2019-04-22T22:48:58.176Z,34.84
2019-04-22T22:51:15.276Z,34.85
2019-04-22T22:53:37.067Z,34.78
2019-04-22T22:55:39.790Z,34.95
2019-04-22T22:57:50.045Z,35.18
2019-04-22T22:59:58.721Z,35.32
2019-04-22T23:02:20.218Z,35.11
2019-04-22T23:04:39.628Z,35.31
2019-04-22T23:06:53.206Z,35.54
2019-04-22T23:09:05.679Z,35.33
2019-04-22T23:11:13.432Z,35.41
2019-04-22T23:13:25.837Z,35.39
2019-04-22T23:15:35.929Z,35.50
2019-04-22T23:17:32.215Z,35.71
2019-04-22T23:19:49.712Z,35.80
2019-04-22T23:22:01.105Z,35.60
2019-04-22T23:24:26.462Z,35.71
2019-04-22T23:26:42.215Z,35.70
2019-04-22T23:28:52.435Z,36.15
2019-04-22T23:31:15.011Z,36.28
2019-04-22T23:33:49.455Z,36.36
2019-04-22T23:36:05.890Z,36.02
2019-04-22T23:38:15.424Z,36.54
2019-04-22T23:42:53.870Z,36.50
2019-04-22T23:45:04.409Z,36.69
2019-04-22T23:47:13.731Z,36.98
2019-04-22T23:49:25.238Z,37.17
2019-04-22T23:51:51.111Z,37.18
2019-04-22T23:56:12.612Z,37.37
2019-04-22T23:58:38.359Z,37.37
